KBLU

Details ICAO KBLU
Name BLUE CANYON NYACK
Region United States
Timezone America/Los_Angeles (UTC-8.0)
Plans Departing 2
Arriving 1
Stats Elevation 5,284 ft / 1,611 m (AMSL)
Location 39.274958° -120.709761°
Runways 1
Magnetic Variation 13.538° E
Sunrise 2017-12-13 15:15:37 UTC / 2017-12-13 07:15:37 Local
Sunset 2017-12-14 00:41:36 UTC / 2017-12-13 16:41:36 Local
Advertisement - Login to hide

Runways

ID Width Length Bearing (true) Bearing (mag) Surface Threshold Offset Overrun Length
15 50 ft / 15 m 3,305 ft / 1,008 m 167.69° 154.15° Asphalt 0 ft / 0 m 0 ft / 0 m
33 50 ft / 15 m 3,305 ft / 1,008 m 347.69° 334.15° Asphalt 0 ft / 0 m 0 ft / 0 m

Map

Weather


0- 5 10 15 20 25 30 35+ Temperature / ° C

Clouds and Precipitation
Forecast for 2017-12-13 12:00 UTC. Updated 2 hours ago

Ground ~20,000 ft ~40,000 ft Winds

METAR

KBLU 130852Z AUTO 04006KT 10SM CLR 16/M33 A3029 RMK AO2 SLP181 T01561328 58002 TSNO

TAF

Not found

Frequencies

Recorded 120.07 MHz ASOS
Unicom 122.90 MHz CTAF
Warning: Do not use this data for real-world aviation or navigation. No guarantee of current accuracy is given.